Airfield :
LOGIN :

Register | Disclaimer

   EN    FR    IT 

 










Legend :    VFR   Marginal VFR   IFR   Intensive IFR   Very Intensive IFR
Visi :
Ceiling :
>= 8 km
>= 3000ft
5 to 8 km
1000 to 3000 ft
1500m to 5 km
500 to 1000 ft
800 to 1500m
200 to 500 ft
< 800m
< 200 ft
Symbols :   Thunderstorms  Fog  Heavy snow  Heavy precipitations  Wind > 20 kt
SIGMETs :     Misc.  Thunderstorms  Icing  Turbulence  Mountain Waves  Volcanic Ashes






- Airport Elevation : 412 ft
- IATA code : ADB


LTBJ - Adnan Menderes

CURRENT METAR :
  • 071450Z 01019KT 9999 FEW030 SCT100 22/10 Q1014 NOSIG RMK RWY16 03020G30KT

EXPIRED METARs :
  • 071420Z 02021KT 9999 FEW030 SCT100 23/10 Q1014 NOSIG RMK RWY16 04019KT
  • 071350Z 02019KT 9999 FEW030 SCT100 24/10 Q1014 NOSIG RMK RWY16 03019KT
  • 071320Z 03019KT 360V060 9999 FEW030 SCT100 25/10 Q1014 NOSIG RMK RWY16 03019KT
  • 071250Z 02019KT 9999 FEW030 SCT100 25/10 Q1014 NOSIG RMK RWY16 04018KT
  • 071220Z 02019KT 9999 FEW030 SCT100 25/09 Q1014 NOSIG RMK RWY16 04020KT 010V080

TAF TAF LTBJ
Valid from the 07 at 12:00 until the 08 at 12:00 UTC


071040Z 0712/0812 01022G35KT 9999 FEW030 SCT100
BECMG 0718/0721 36012KT
BECMG 0806/0809 36018G30KT



MET'MAP, your aeronautical weather chart ! - Copyright ORBIFLY December 2007 - Disclaimer

ORBIFLY MET'MAP TEAM :

Programming & Development : Alexandra Zaïnal
Original concept : Baudouin d'Aumeries
Technical & hardware support : Manuel Goepfert
Assistance : Marc-Olivier Méhu




SOURCES & CREDITS :

   NOAA